createdAt,value
2022-09-07T00:00:38.419Z,99.90
2022-09-07T00:03:05.776Z,99.90
2022-09-07T00:05:33.120Z,99.90
2022-09-07T00:08:00.519Z,99.90
2022-09-07T00:10:27.454Z,99.90
2022-09-07T00:12:54.385Z,99.90
2022-09-07T00:15:21.224Z,99.90
2022-09-07T00:17:48.122Z,99.90
2022-09-07T00:20:15.133Z,99.90
2022-09-07T00:22:41.963Z,99.90
2022-09-07T00:25:08.981Z,99.90
2022-09-07T00:27:35.901Z,99.90
2022-09-07T00:30:02.879Z,99.90
2022-09-07T00:32:29.718Z,99.90
2022-09-07T00:34:56.515Z,99.90
2022-09-07T00:37:23.464Z,99.90
2022-09-07T00:39:50.567Z,99.90
2022-09-07T00:42:20.653Z,99.90
2022-09-07T00:45:08.088Z,99.90
2022-09-07T00:47:34.909Z,99.90
2022-09-07T00:50:13.812Z,99.90
2022-09-07T00:52:42.140Z,99.90
2022-09-07T00:55:11.399Z,99.90
2022-09-07T00:57:41.392Z,99.90
2022-09-07T01:00:08.966Z,99.90
2022-09-07T01:02:35.969Z,99.90
2022-09-07T01:05:10.131Z,99.90
2022-09-07T01:07:37.155Z,99.90
2022-09-07T01:10:04.175Z,99.90
2022-09-07T01:12:31.540Z,99.90
2022-09-07T01:14:59.514Z,99.90
2022-09-07T01:17:44.786Z,99.90
2022-09-07T01:20:32.526Z,99.90
2022-09-07T01:22:59.603Z,99.90
2022-09-07T01:25:38.654Z,99.90
2022-09-07T01:28:17.554Z,99.90
2022-09-07T01:31:07.750Z,99.90
2022-09-07T01:33:44.346Z,99.90
2022-09-07T01:36:17.693Z,99.90
2022-09-07T01:38:46.152Z,99.90
2022-09-07T01:41:12.928Z,99.90
2022-09-07T01:43:58.382Z,99.90
2022-09-07T01:46:37.020Z,99.90
2022-09-07T01:49:08.514Z,99.90
2022-09-07T01:51:37.089Z,99.90
2022-09-07T01:54:10.723Z,99.90
2022-09-07T01:56:40.571Z,99.90
2022-09-07T01:59:16.455Z,99.90
2022-09-07T02:01:50.748Z,99.90
2022-09-07T02:04:20.708Z,99.90
2022-09-07T02:07:05.927Z,99.90
2022-09-07T02:09:35.848Z,99.90
2022-09-07T02:12:04.163Z,99.90
2022-09-07T02:14:33.684Z,99.90
2022-09-07T02:17:03.619Z,99.90
2022-09-07T02:19:34.013Z,99.90
2022-09-07T02:22:02.542Z,99.90
2022-09-07T02:24:35.326Z,99.90
2022-09-07T02:27:06.575Z,99.90
2022-09-07T02:29:33.500Z,99.90
2022-09-07T02:32:00.322Z,99.90
2022-09-07T02:34:27.187Z,99.90
2022-09-07T02:36:54.509Z,99.90
2022-09-07T02:39:21.411Z,99.90
2022-09-07T02:41:48.468Z,99.90
2022-09-07T02:44:15.274Z,99.90
2022-09-07T02:46:48.171Z,99.90
2022-09-07T02:49:33.917Z,99.90
2022-09-07T02:52:16.987Z,99.90
2022-09-07T02:54:51.220Z,99.90
2022-09-07T02:57:24.011Z,99.90
2022-09-07T02:59:53.588Z,99.90
2022-09-07T03:02:31.734Z,99.90
2022-09-07T03:05:03.530Z,99.90
2022-09-07T03:07:35.777Z,99.90
2022-09-07T03:10:04.307Z,99.90
2022-09-07T03:12:47.575Z,99.90
2022-09-07T03:15:15.357Z,99.90
2022-09-07T03:17:42.563Z,99.90
2022-09-07T03:20:09.636Z,99.90
2022-09-07T03:22:36.548Z,99.90
2022-09-07T03:25:06.583Z,99.90
2022-09-07T03:27:33.694Z,99.90
2022-09-07T03:30:00.847Z,99.90
2022-09-07T03:32:32.386Z,99.90
2022-09-07T03:34:59.697Z,99.90
2022-09-07T03:37:26.890Z,99.90
2022-09-07T03:39:53.912Z,99.90
2022-09-07T03:42:21.316Z,99.90
2022-09-07T03:44:49.806Z,99.90
2022-09-07T03:47:17.270Z,99.90
2022-09-07T03:49:44.500Z,99.90
2022-09-07T03:52:11.357Z,99.90
2022-09-07T03:54:39.792Z,99.90
2022-09-07T03:57:06.984Z,99.90
2022-09-07T03:59:33.932Z,99.90
2022-09-07T04:02:01.272Z,99.90
2022-09-07T04:04:28.477Z,99.90
2022-09-07T04:06:55.385Z,99.90
2022-09-07T04:09:22.616Z,99.90
2022-09-07T04:11:49.432Z,99.90
2022-09-07T04:14:16.367Z,99.90
2022-09-07T04:16:45.516Z,99.90
2022-09-07T04:19:12.519Z,99.90
2022-09-07T04:21:39.684Z,99.90
2022-09-07T04:24:06.817Z,99.90
2022-09-07T04:26:34.433Z,99.90
2022-09-07T04:29:02.750Z,99.90
2022-09-07T04:31:29.724Z,99.90
2022-09-07T04:33:56.939Z,99.90
2022-09-07T04:36:24.906Z,99.90
2022-09-07T04:38:59.720Z,99.90
2022-09-07T04:41:27.219Z,99.90
2022-09-07T04:43:55.281Z,99.90
2022-09-07T04:46:29.823Z,99.90
2022-09-07T04:48:58.110Z,99.90
2022-09-07T04:51:26.215Z,99.90
2022-09-07T04:53:53.772Z,99.90
2022-09-07T04:56:21.259Z,99.90
2022-09-07T04:58:48.765Z,99.90
2022-09-07T05:01:16.866Z,99.90
2022-09-07T05:03:43.969Z,99.90
2022-09-07T05:06:11.217Z,99.90
2022-09-07T05:08:38.920Z,99.90
2022-09-07T05:11:05.867Z,99.90
2022-09-07T05:13:32.747Z,99.90
2022-09-07T05:16:00.189Z,99.90
2022-09-07T05:18:27.339Z,99.90
2022-09-07T05:20:54.214Z,99.90
2022-09-07T05:23:22.253Z,99.90
2022-09-07T05:25:49.093Z,99.90
2022-09-07T05:28:19.288Z,99.90
2022-09-07T05:36:20.990Z,99.90
2022-09-07T05:38:47.846Z,99.90
2022-09-07T05:41:19.433Z,99.90
2022-09-07T05:46:33.702Z,99.90
2022-09-07T05:49:01.290Z,99.90
2022-09-07T05:51:28.152Z,99.90
2022-09-07T05:53:55.984Z,99.90
2022-09-07T05:56:22.890Z,99.90
2022-09-07T05:58:49.770Z,99.90
2022-09-07T06:01:17.349Z,99.90
2022-09-07T06:03:44.671Z,99.90
2022-09-07T06:06:11.547Z,99.90
2022-09-07T06:08:39.492Z,99.90
2022-09-07T06:11:07.253Z,99.90
2022-09-07T06:13:34.143Z,99.90
2022-09-07T06:16:01.939Z,99.90
2022-09-07T06:18:32.758Z,99.90
2022-09-07T06:21:03.585Z,99.90
2022-09-07T06:23:31.380Z,99.90
2022-09-07T06:25:58.372Z,99.90
2022-09-07T06:28:32.110Z,99.90
2022-09-07T06:31:02.895Z,99.90
2022-09-07T06:33:29.733Z,99.90
2022-09-07T06:36:06.502Z,99.90
2022-09-07T06:38:34.642Z,99.90
2022-09-07T06:43:53.624Z,99.90
2022-09-07T06:49:07.660Z,99.90
2022-09-07T06:51:34.522Z,99.90
2022-09-07T06:56:52.372Z,99.90
2022-09-07T06:59:19.267Z,99.90
2022-09-07T07:01:46.290Z,99.90
2022-09-07T07:04:14.073Z,99.90
2022-09-07T07:06:42.139Z,99.90
2022-09-07T07:09:12.027Z,99.90
2022-09-07T07:11:39.010Z,99.90
2022-09-07T07:14:06.033Z,99.90
2022-09-07T07:16:33.075Z,99.90
2022-09-07T07:19:00.148Z,99.90
2022-09-07T07:21:28.997Z,99.90
2022-09-07T07:24:04.993Z,99.80
2022-09-07T07:26:34.686Z,98.80
2022-09-07T07:29:03.187Z,98.10
2022-09-07T07:31:32.664Z,97.90
2022-09-07T07:33:59.724Z,98.10
2022-09-07T07:36:27.380Z,98.80
2022-09-07T07:44:14.858Z,99.90
2022-09-07T07:46:41.753Z,99.90
2022-09-07T07:49:09.148Z,99.90
2022-09-07T07:54:22.944Z,99.90
2022-09-07T07:56:50.033Z,99.90
2022-09-07T07:59:16.835Z,99.90
2022-09-07T08:01:43.968Z,99.90
2022-09-07T08:04:10.830Z,99.90
2022-09-07T08:06:42.529Z,99.90
2022-09-07T08:09:09.688Z,99.90
2022-09-07T08:11:37.219Z,99.90
2022-09-07T08:14:05.938Z,99.90
2022-09-07T08:16:34.192Z,99.90
2022-09-07T08:19:01.969Z,99.90
2022-09-07T08:21:28.753Z,99.90
2022-09-07T08:23:56.153Z,99.90
2022-09-07T08:26:22.886Z,99.90
2022-09-07T08:28:49.718Z,99.90
2022-09-07T08:31:17.264Z,99.90
2022-09-07T08:33:44.564Z,99.90
2022-09-07T08:36:18.280Z,99.90
2022-09-07T08:38:45.401Z,99.90
2022-09-07T08:41:24.318Z,99.90
2022-09-07T08:43:58.096Z,99.90
2022-09-07T08:46:36.181Z,99.90
2022-09-07T08:49:05.760Z,99.90
2022-09-07T08:51:35.587Z,99.90
2022-09-07T08:54:03.039Z,99.90
2022-09-07T08:57:20.692Z,99.90
2022-09-07T08:59:46.534Z,99.90
2022-09-07T09:02:35.136Z,99.90
2022-09-07T09:05:19.428Z,99.90
2022-09-07T09:07:56.660Z,99.90
2022-09-07T09:10:46.373Z,99.90
2022-09-07T09:13:32.208Z,99.90
2022-09-07T09:16:04.871Z,99.90
2022-09-07T09:18:56.246Z,99.90
2022-09-07T09:21:22.999Z,99.90
2022-09-07T09:23:52.436Z,99.90
2022-09-07T09:26:26.024Z,99.80
2022-09-07T09:28:52.803Z,99.90
2022-09-07T09:31:20.781Z,99.80
2022-09-07T09:34:06.073Z,99.50
2022-09-07T09:36:34.411Z,98.80
2022-09-07T09:39:01.364Z,98.60
2022-09-07T09:41:37.536Z,98.40
2022-09-07T09:44:04.283Z,98.00
2022-09-07T09:46:33.668Z,97.90
2022-09-07T09:49:12.676Z,98.00
2022-09-07T09:54:44.617Z,98.70
2022-09-07T09:57:40.812Z,98.70
2022-09-07T10:00:28.929Z,98.30
2022-09-07T10:06:03.774Z,98.10
2022-09-07T10:08:31.470Z,98.80
2022-09-07T10:11:09.014Z,98.20
2022-09-07T10:13:35.761Z,98.60
2022-09-07T10:16:07.079Z,98.30
2022-09-07T10:18:52.694Z,98.40
2022-09-07T10:21:25.403Z,98.00
2022-09-07T10:24:18.176Z,98.20
2022-09-07T10:26:45.111Z,98.10
2022-09-07T10:29:24.379Z,98.20
2022-09-07T10:32:11.347Z,98.70
2022-09-07T10:34:44.227Z,98.60
2022-09-07T10:37:15.053Z,98.10
2022-09-07T10:39:42.849Z,97.40
2022-09-07T10:42:09.589Z,97.60
2022-09-07T10:44:45.450Z,97.20
2022-09-07T10:47:30.918Z,97.40
2022-09-07T10:52:56.456Z,97.60
2022-09-07T10:55:28.061Z,97.90
2022-09-07T10:57:59.837Z,97.50
2022-09-07T11:00:28.499Z,97.40
2022-09-07T11:05:50.006Z,97.30
2022-09-07T11:08:27.195Z,97.60
2022-09-07T11:11:05.962Z,97.70
2022-09-07T11:13:55.507Z,98.10
2022-09-07T11:22:05.568Z,97.90
2022-09-07T11:25:28.740Z,97.80
2022-09-07T11:27:44.452Z,97.70
2022-09-07T11:30:29.698Z,97.90
2022-09-07T11:33:11.279Z,97.30
2022-09-07T11:35:47.232Z,97.30
2022-09-07T11:38:22.819Z,96.90
2022-09-07T11:41:09.828Z,96.70
2022-09-07T11:43:48.055Z,96.50
2022-09-07T11:46:19.260Z,96.70
2022-09-07T11:48:56.560Z,96.70
2022-09-07T11:51:39.846Z,96.70
2022-09-07T11:54:18.531Z,96.50
2022-09-07T11:56:48.216Z,96.00
2022-09-07T11:59:41.166Z,96.40
2022-09-07T12:02:36.663Z,96.60
2022-09-07T12:05:20.760Z,96.40
2022-09-07T12:07:50.328Z,96.40
2022-09-07T12:10:22.603Z,96.90
2022-09-07T12:12:54.794Z,97.00
2022-09-07T12:15:40.396Z,97.30
2022-09-07T12:18:25.316Z,96.90
2022-09-07T12:20:52.096Z,96.60
2022-09-07T12:23:21.772Z,96.50
2022-09-07T12:25:49.416Z,96.70
2022-09-07T12:28:32.453Z,96.90
2022-09-07T12:31:00.591Z,96.90
2022-09-07T12:33:28.630Z,97.50
2022-09-07T12:35:58.050Z,97.70
2022-09-07T12:38:31.181Z,97.20
2022-09-07T12:41:01.688Z,97.60
2022-09-07T12:43:28.518Z,97.80
2022-09-07T12:45:56.742Z,96.70
2022-09-07T12:48:29.652Z,96.80
2022-09-07T12:51:02.295Z,97.30
2022-09-07T12:53:29.443Z,97.50
2022-09-07T12:56:21.226Z,97.90
2022-09-07T12:59:00.171Z,98.20
2022-09-07T13:01:27.037Z,98.30
2022-09-07T13:04:12.866Z,98.70
2022-09-07T13:07:03.950Z,98.40
2022-09-07T13:09:40.550Z,98.20
2022-09-07T13:15:28.516Z,97.00
2022-09-07T13:17:56.309Z,96.90
2022-09-07T13:20:30.062Z,96.30
2022-09-07T13:23:06.533Z,96.10
2022-09-07T13:25:43.470Z,96.30
2022-09-07T13:28:23.443Z,96.80
2022-09-07T13:30:56.361Z,96.60
2022-09-07T13:33:28.913Z,97.10
2022-09-07T13:36:00.761Z,96.80
2022-09-07T13:38:28.433Z,96.00
2022-09-07T13:40:57.254Z,95.60
2022-09-07T13:43:24.497Z,95.80
2022-09-07T13:45:54.073Z,96.40
2022-09-07T13:48:23.644Z,96.90
2022-09-07T13:51:02.820Z,97.00
2022-09-07T13:53:35.614Z,97.40
2022-09-07T13:56:07.655Z,96.80
2022-09-07T13:58:41.770Z,96.80
2022-09-07T14:01:17.959Z,96.60
2022-09-07T14:03:44.725Z,96.30
2022-09-07T14:06:17.310Z,96.70
2022-09-07T14:08:47.190Z,96.70
2022-09-07T14:11:28.127Z,97.20
2022-09-07T14:14:08.292Z,97.70
2022-09-07T14:16:35.738Z,97.70
2022-09-07T14:19:09.137Z,98.00
2022-09-07T14:21:35.938Z,98.30
2022-09-07T14:24:03.711Z,98.30
2022-09-07T14:26:30.568Z,98.70
2022-09-07T14:28:57.258Z,99.30
2022-09-07T14:31:24.952Z,99.30
2022-09-07T14:33:51.683Z,99.30
2022-09-07T14:36:41.641Z,99.20
2022-09-07T14:39:06.673Z,99.50
2022-09-07T14:41:38.388Z,99.50
2022-09-07T14:44:05.214Z,99.60
2022-09-07T14:46:36.007Z,99.30
2022-09-07T14:49:13.593Z,99.40
2022-09-07T14:51:43.336Z,99.10
2022-09-07T14:54:19.218Z,98.70
2022-09-07T14:56:59.757Z,98.90
2022-09-07T14:59:28.628Z,99.40
2022-09-07T15:02:14.013Z,98.90
2022-09-07T15:04:40.809Z,99.00
2022-09-07T15:07:26.305Z,99.10
2022-09-07T15:09:52.994Z,99.30
2022-09-07T15:12:27.251Z,99.40
2022-09-07T15:15:10.418Z,99.50
2022-09-07T15:17:44.790Z,99.80
2022-09-07T15:20:30.197Z,99.90
2022-09-07T15:22:56.975Z,99.90
2022-09-07T15:25:23.867Z,99.70
2022-09-07T15:27:50.872Z,99.50
2022-09-07T15:30:17.748Z,99.60
2022-09-07T15:32:44.559Z,99.10
2022-09-07T15:35:11.511Z,99.70
2022-09-07T15:40:25.628Z,99.60
2022-09-07T15:43:11.431Z,99.80
2022-09-07T15:45:39.874Z,99.70
2022-09-07T15:48:06.744Z,99.60
2022-09-07T15:50:33.671Z,99.80
2022-09-07T15:53:01.702Z,99.90
2022-09-07T15:55:28.518Z,99.90
2022-09-07T15:58:09.085Z,99.90
2022-09-07T16:00:38.735Z,99.90
2022-09-07T16:03:06.725Z,99.90
2022-09-07T16:05:34.489Z,99.90
2022-09-07T16:11:04.719Z,99.90
2022-09-07T16:13:32.122Z,99.90
2022-09-07T16:15:59.841Z,99.90
2022-09-07T16:18:31.263Z,99.90
2022-09-07T16:21:03.634Z,99.90
2022-09-07T16:23:30.376Z,99.90
2022-09-07T16:25:58.584Z,99.90
2022-09-07T16:28:25.868Z,99.90
2022-09-07T16:30:52.845Z,99.90
2022-09-07T16:33:19.661Z,99.90
2022-09-07T16:35:59.901Z,99.90
2022-09-07T16:41:32.531Z,99.90
2022-09-07T16:43:59.499Z,99.90
2022-09-07T16:46:27.558Z,99.90
2022-09-07T16:48:54.561Z,99.90
2022-09-07T16:51:22.594Z,99.90
2022-09-07T16:53:54.333Z,99.90
2022-09-07T16:56:24.576Z,99.90
2022-09-07T16:58:53.253Z,99.90
2022-09-07T17:01:21.837Z,99.90
2022-09-07T17:03:49.738Z,99.90
2022-09-07T17:06:17.180Z,99.90
2022-09-07T17:08:44.265Z,99.90
2022-09-07T17:11:12.640Z,99.90
2022-09-07T17:13:39.863Z,99.90
2022-09-07T17:16:10.977Z,99.90
2022-09-07T17:21:25.112Z,99.90
2022-09-07T17:23:55.620Z,99.90
2022-09-07T17:26:26.918Z,99.90
2022-09-07T17:28:55.357Z,99.90
2022-09-07T17:34:12.558Z,99.90
2022-09-07T17:36:39.340Z,99.90
2022-09-07T17:39:15.927Z,99.90
2022-09-07T17:41:43.741Z,99.90
2022-09-07T17:44:10.879Z,99.90
2022-09-07T17:46:38.080Z,99.90
2022-09-07T17:49:07.035Z,99.90
2022-09-07T17:51:33.847Z,99.90
2022-09-07T17:54:09.719Z,99.90
2022-09-07T17:56:37.466Z,99.90
2022-09-07T18:01:51.265Z,99.90
2022-09-07T18:04:18.050Z,99.90
2022-09-07T18:06:44.859Z,99.90
2022-09-07T18:09:11.874Z,99.90
2022-09-07T18:11:47.575Z,99.90
2022-09-07T18:14:15.444Z,99.90
2022-09-07T18:16:42.785Z,99.90
2022-09-07T18:19:11.113Z,99.90
2022-09-07T18:21:39.328Z,99.90
2022-09-07T18:24:08.814Z,99.90
2022-09-07T18:26:38.393Z,99.90
2022-09-07T18:29:12.995Z,99.90
2022-09-07T18:31:53.666Z,99.90
2022-09-07T18:34:20.769Z,99.90
2022-09-07T18:36:47.626Z,99.90
2022-09-07T18:39:14.469Z,99.90
2022-09-07T18:41:42.128Z,99.90
2022-09-07T18:46:56.420Z,99.90
2022-09-07T18:49:23.517Z,99.90
2022-09-07T18:54:38.474Z,99.90
2022-09-07T18:57:06.673Z,99.90
2022-09-07T18:59:33.899Z,99.90
2022-09-07T19:02:04.363Z,99.90
2022-09-07T19:07:20.843Z,99.90
2022-09-07T19:09:48.352Z,99.90
2022-09-07T19:12:15.500Z,99.90
2022-09-07T19:14:42.458Z,99.90
2022-09-07T19:17:10.995Z,99.90
2022-09-07T19:19:38.974Z,99.90
2022-09-07T19:22:06.090Z,99.90
2022-09-07T19:24:33.350Z,99.90
2022-09-07T19:27:01.138Z,99.90
2022-09-07T19:29:28.117Z,99.90
2022-09-07T19:32:04.449Z,99.90
2022-09-07T19:34:35.622Z,99.90
2022-09-07T19:37:03.017Z,99.90
2022-09-07T19:39:29.918Z,99.90
2022-09-07T19:41:56.947Z,99.90
2022-09-07T19:44:24.007Z,99.90
2022-09-07T19:46:50.911Z,99.90
2022-09-07T19:49:17.702Z,99.90
2022-09-07T19:51:44.478Z,99.90
2022-09-07T19:54:11.997Z,99.90
2022-09-07T19:56:39.632Z,99.90
2022-09-07T19:59:06.812Z,99.90
2022-09-07T20:01:35.079Z,99.90
2022-09-07T20:04:03.881Z,99.90
2022-09-07T20:06:32.748Z,99.90
2022-09-07T20:09:01.233Z,99.90
2022-09-07T20:11:30.984Z,99.90
2022-09-07T20:13:57.742Z,99.90
2022-09-07T20:16:25.281Z,99.90
2022-09-07T20:18:52.214Z,99.90
2022-09-07T20:21:20.215Z,99.90
2022-09-07T20:23:47.011Z,99.90
2022-09-07T20:26:14.912Z,99.90
2022-09-07T20:28:42.433Z,99.90
2022-09-07T20:31:13.933Z,99.90
2022-09-07T20:33:41.239Z,99.90
2022-09-07T20:36:09.232Z,99.90
2022-09-07T20:38:40.526Z,99.90
2022-09-07T20:41:07.745Z,99.90
2022-09-07T20:43:34.907Z,99.90
2022-09-07T20:46:01.708Z,99.90
2022-09-07T20:48:28.568Z,99.90
2022-09-07T20:50:59.115Z,99.90
2022-09-07T20:53:26.059Z,99.90
2022-09-07T20:56:00.087Z,99.90
2022-09-07T20:58:26.947Z,99.90
2022-09-07T21:00:53.730Z,99.90
2022-09-07T21:03:20.658Z,99.90
2022-09-07T21:05:47.364Z,99.90
2022-09-07T21:08:14.505Z,99.90
2022-09-07T21:10:42.258Z,99.90
2022-09-07T21:13:09.324Z,99.90
2022-09-07T21:15:39.479Z,99.90
2022-09-07T21:18:07.846Z,99.90
2022-09-07T21:20:34.635Z,99.90
2022-09-07T21:23:01.397Z,99.90
2022-09-07T21:25:28.184Z,99.90
2022-09-07T21:27:54.926Z,99.90
2022-09-07T21:30:21.674Z,99.90
2022-09-07T21:32:51.584Z,99.90
2022-09-07T21:35:18.770Z,99.90
2022-09-07T21:37:45.832Z,99.90
2022-09-07T21:40:12.743Z,99.90
2022-09-07T21:42:39.667Z,99.90
2022-09-07T21:45:07.404Z,99.90
2022-09-07T21:47:34.123Z,99.90
2022-09-07T21:50:00.877Z,99.90
2022-09-07T21:52:27.650Z,99.90
2022-09-07T21:54:54.427Z,99.90
2022-09-07T21:57:21.135Z,99.90
2022-09-07T21:59:48.012Z,99.90
2022-09-07T22:02:14.849Z,99.90
2022-09-07T22:04:41.586Z,99.90
2022-09-07T22:07:08.292Z,99.90
2022-09-07T22:09:35.372Z,99.90
2022-09-07T22:12:02.380Z,99.90
2022-09-07T22:14:29.149Z,99.90
2022-09-07T22:16:56.182Z,99.90
2022-09-07T22:19:22.869Z,99.90
2022-09-07T22:21:49.538Z,99.90
2022-09-07T22:24:16.327Z,99.90
2022-09-07T22:26:43.019Z,99.90
2022-09-07T22:29:11.078Z,99.90
2022-09-07T22:31:38.354Z,99.90
2022-09-07T22:34:06.207Z,99.90
2022-09-07T22:36:34.263Z,99.90
2022-09-07T22:39:03.152Z,99.90
2022-09-07T22:41:31.351Z,99.90
2022-09-07T22:43:58.707Z,99.90
2022-09-07T22:46:27.044Z,99.90
2022-09-07T22:48:54.569Z,99.90
2022-09-07T22:51:21.935Z,99.90
2022-09-07T22:53:48.644Z,99.90
2022-09-07T22:56:18.528Z,99.90
2022-09-07T22:58:52.804Z,99.90
2022-09-07T23:01:20.905Z,99.90
2022-09-07T23:03:47.952Z,99.90
2022-09-07T23:06:21.541Z,99.90
2022-09-07T23:08:48.739Z,99.90
2022-09-07T23:11:15.704Z,99.90
2022-09-07T23:13:43.368Z,99.90
2022-09-07T23:16:10.649Z,99.90
2022-09-07T23:18:39.220Z,99.90
2022-09-07T23:21:06.225Z,99.90
2022-09-07T23:23:33.055Z,99.90
2022-09-07T23:26:03.528Z,99.90
2022-09-07T23:28:30.375Z,99.90
2022-09-07T23:30:57.531Z,99.90
2022-09-07T23:33:26.088Z,99.90
2022-09-07T23:36:00.568Z,99.90
2022-09-07T23:38:27.926Z,99.90
2022-09-07T23:40:55.085Z,99.90
2022-09-07T23:43:22.056Z,99.90
2022-09-07T23:45:48.751Z,99.90
2022-09-07T23:48:15.510Z,99.90
2022-09-07T23:50:45.435Z,99.90
2022-09-07T23:53:12.812Z,99.90
2022-09-07T23:55:39.997Z,99.90
2022-09-07T23:58:06.895Z,99.90
